Terminal Aerodrome Forecast
Issued by NWS Charleston, WV

Current Version | Previous Version | Text Only | Print | Product List | Glossary Off
Versions: 1 2 3 4 5 6 7 8 9 10 11 12 13 14 15 16 17 18 19 20 21 22 23 24

000
FTUS41 KRLX 151300 AAB
TAFPKB
TAF AMD
KPKB 151359Z 1514/1612 00000KT P6SM FEW002
     FM151500 00000KT P6SM SCT020
     FM151800 21004KT P6SM SCT040
     FM160100 00000KT P6SM BKN090
     FM160600 VRB03KT 5SM BR BKN040=

USA.gov is the U.S. government's official web portal to all federal, state and local government web resources and services.